createdAt,value
2023-01-26T00:13:58.558Z,225.8508
2023-01-26T00:29:01.372Z,90.14645
2023-01-26T00:44:03.574Z,25.20223
2023-01-26T00:59:05.769Z,2.90795
2023-01-26T01:14:08.029Z,0
2023-01-26T01:29:10.348Z,0
2023-01-26T01:44:12.816Z,0
2023-01-26T01:59:15.045Z,0
2023-01-26T02:14:17.346Z,0.96932
2023-01-26T02:29:19.515Z,0.96932
2023-01-26T02:44:21.743Z,0.96932
2023-01-26T02:59:23.999Z,0.96932
2023-01-26T03:14:26.208Z,0.96932
2023-01-26T03:29:28.423Z,0.96932
2023-01-26T03:44:30.684Z,0.96932
2023-01-26T03:59:32.915Z,0.96932
2023-01-26T04:14:38.168Z,0.96932
2023-01-26T04:29:52.644Z,0.96932
2023-01-26T04:44:54.929Z,0.96932
2023-01-26T04:59:57.167Z,0.96932
2023-01-26T05:14:59.571Z,0
2023-01-26T05:30:02.362Z,0
2023-01-26T05:45:04.696Z,0
2023-01-26T06:00:06.899Z,0
2023-01-26T06:15:10.505Z,0
2023-01-26T06:30:13.152Z,0
2023-01-26T06:45:15.487Z,0
2023-01-26T07:00:17.759Z,0
2023-01-26T07:15:20.117Z,0
2023-01-26T07:30:22.320Z,0
2023-01-26T07:45:24.968Z,0
2023-01-26T08:00:27.264Z,0
2023-01-26T08:15:29.430Z,0
2023-01-26T08:30:31.678Z,0
2023-01-26T08:45:34.026Z,0
2023-01-26T09:00:36.320Z,0
2023-01-26T09:15:38.619Z,0
2023-01-26T09:30:40.957Z,0
2023-01-26T09:45:43.252Z,0
2023-01-26T10:00:45.479Z,0
2023-01-26T10:15:47.777Z,0
2023-01-26T10:30:50.143Z,0
2023-01-26T10:45:52.627Z,0
2023-01-26T11:00:54.815Z,0
2023-01-26T11:15:57.080Z,0
2023-01-26T11:30:59.409Z,0
2023-01-26T11:46:01.762Z,0
2023-01-26T12:01:04.029Z,0
2023-01-26T12:16:06.196Z,0
2023-01-26T12:31:08.629Z,0
2023-01-26T12:46:11.004Z,0
2023-01-26T13:01:13.395Z,0
2023-01-26T13:16:15.704Z,0
2023-01-26T13:31:17.933Z,0
2023-01-26T13:46:21.444Z,0
2023-01-26T14:01:23.760Z,0
2023-01-26T14:16:26.561Z,0
2023-01-26T14:31:29.097Z,0
2023-01-26T14:46:31.351Z,0
2023-01-26T15:01:33.557Z,0.96932
2023-01-26T15:16:35.786Z,6.78522
2023-01-26T15:31:38.154Z,29.0795
2023-01-26T15:46:40.497Z,147.33614
2023-01-26T16:01:42.937Z,393.5426
2023-01-26T16:16:45.485Z,710.50916
2023-01-26T16:31:47.847Z,1153.48694
2023-01-26T16:46:50.286Z,1515.04199
2023-01-26T17:01:52.593Z,1266.89697
2023-01-26T17:16:54.804Z,2876.93213
2023-01-26T17:31:57.118Z,4623.64062
2023-01-26T17:46:59.427Z,6322.85303
2023-01-26T18:02:01.778Z,2671.43677
2023-01-26T18:17:04.008Z,7621.7373
2023-01-26T18:32:06.306Z,3579.68677
2023-01-26T18:47:08.568Z,4434.62402
2023-01-26T19:02:10.790Z,6494.42188
2023-01-26T19:17:13.132Z,5943.8501
2023-01-26T19:32:15.413Z,4369.67969
2023-01-26T19:47:17.667Z,3936.39526
2023-01-26T20:02:20.074Z,5255.63525
2023-01-26T20:17:22.327Z,8814.96582
2023-01-26T20:32:24.566Z,9790.09863
2023-01-26T20:47:26.848Z,7908.65527
2023-01-26T21:02:34.295Z,8610.44043
2023-01-26T21:17:36.572Z,7408.48779
2023-01-26T21:32:44.017Z,6572.93652
2023-01-26T21:47:46.312Z,2839.12866
2023-01-26T22:02:48.591Z,3180.32812
2023-01-26T22:17:50.837Z,3549.63794
2023-01-26T22:32:53.164Z,2461.09521
2023-01-26T22:47:55.401Z,1257.20374
2023-01-26T23:02:57.593Z,1408.41724
2023-01-26T23:18:00.023Z,1095.32788
2023-01-26T23:33:02.211Z,970.28601
2023-01-26T23:48:04.537Z,779.33063
